sensor_id;sensor_type;location;lat;lon;timestamp;temperature;humidity
27423;DHT22;14878;50.778;0.258;2022-08-14T00:00:57;23.00;99.90
27423;DHT22;14878;50.778;0.258;2022-08-14T00:02:03;23.10;99.90
27423;DHT22;14878;50.778;0.258;2022-08-14T00:03:04;23.10;99.90
27423;DHT22;14878;50.778;0.258;2022-08-14T00:04:05;23.10;99.90
27423;DHT22;14878;50.778;0.258;2022-08-14T00:05:11;23.20;99.90
27423;DHT22;14878;50.778;0.258;2022-08-14T00:06:15;23.20;99.90
27423;DHT22;14878;50.778;0.258;2022-08-14T00:07:17;23.10;99.90
27423;DHT22;14878;50.778;0.258;2022-08-14T00:08:17;23.10;99.90
27423;DHT22;14878;50.778;0.258;2022-08-14T00:09:18;23.10;99.90
27423;DHT22;14878;50.778;0.258;2022-08-14T00:10:21;23.10;99.90
27423;DHT22;14878;50.778;0.258;2022-08-14T00:11:22;23.10;99.90
27423;DHT22;14878;50.778;0.258;2022-08-14T00:12:24;23.10;99.90
27423;DHT22;14878;50.778;0.258;2022-08-14T00:13:26;23.10;99.90
27423;DHT22;14878;50.778;0.258;2022-08-14T00:14:30;23.10;99.90
27423;DHT22;14878;50.778;0.258;2022-08-14T00:15:34;23.10;99.90
27423;DHT22;14878;50.778;0.258;2022-08-14T00:16:35;23.10;99.90
27423;DHT22;14878;50.778;0.258;2022-08-14T00:17:37;23.00;99.90
27423;DHT22;14878;50.778;0.258;2022-08-14T00:18:38;22.90;99.90
27423;DHT22;14878;50.778;0.258;2022-08-14T00:19:39;22.70;99.90
27423;DHT22;14878;50.778;0.258;2022-08-14T00:20:41;22.70;99.90
27423;DHT22;14878;50.778;0.258;2022-08-14T00:21:42;22.60;99.90
27423;DHT22;14878;50.778;0.258;2022-08-14T00:22:43;22.60;99.90
27423;DHT22;14878;50.778;0.258;2022-08-14T00:23:43;22.60;99.90
27423;DHT22;14878;50.778;0.258;2022-08-14T00:24:44;22.60;99.90
27423;DHT22;14878;50.778;0.258;2022-08-14T00:25:48;22.50;99.90
27423;DHT22;14878;50.778;0.258;2022-08-14T00:26:50;22.50;99.90
27423;DHT22;14878;50.778;0.258;2022-08-14T00:27:51;22.60;99.90
27423;DHT22;14878;50.778;0.258;2022-08-14T00:28:52;22.70;99.90
27423;DHT22;14878;50.778;0.258;2022-08-14T00:29:53;22.80;99.90
27423;DHT22;14878;50.778;0.258;2022-08-14T00:30:55;22.80;99.90
27423;DHT22;14878;50.778;0.258;2022-08-14T00:31:57;22.80;99.90
27423;DHT22;14878;50.778;0.258;2022-08-14T00:32:58;22.80;99.90
27423;DHT22;14878;50.778;0.258;2022-08-14T00:33:59;22.80;99.90
27423;DHT22;14878;50.778;0.258;2022-08-14T00:35:00;22.70;99.90
27423;DHT22;14878;50.778;0.258;2022-08-14T00:36:01;22.60;99.90
27423;DHT22;14878;50.778;0.258;2022-08-14T00:37:02;22.60;99.90
27423;DHT22;14878;50.778;0.258;2022-08-14T00:38:05;22.60;99.90
27423;DHT22;14878;50.778;0.258;2022-08-14T00:39:06;22.50;99.90
27423;DHT22;14878;50.778;0.258;2022-08-14T00:40:09;22.50;99.90
27423;DHT22;14878;50.778;0.258;2022-08-14T00:41:10;22.40;99.90
27423;DHT22;14878;50.778;0.258;2022-08-14T00:42:11;22.30;99.90
27423;DHT22;14878;50.778;0.258;2022-08-14T00:43:12;22.20;99.90
27423;DHT22;14878;50.778;0.258;2022-08-14T00:44:13;22.10;99.90
27423;DHT22;14878;50.778;0.258;2022-08-14T00:45:15;22.00;99.90
27423;DHT22;14878;50.778;0.258;2022-08-14T00:46:16;22.00;99.90
27423;DHT22;14878;50.778;0.258;2022-08-14T00:47:18;21.90;99.90
27423;DHT22;14878;50.778;0.258;2022-08-14T00:48:19;21.90;99.90
27423;DHT22;14878;50.778;0.258;2022-08-14T00:49:20;21.80;99.90
27423;DHT22;14878;50.778;0.258;2022-08-14T00:50:21;21.80;99.90
27423;DHT22;14878;50.778;0.258;2022-08-14T00:51:23;21.80;99.90
27423;DHT22;14878;50.778;0.258;2022-08-14T00:52:24;21.70;99.90
27423;DHT22;14878;50.778;0.258;2022-08-14T00:53:26;21.70;99.90
27423;DHT22;14878;50.778;0.258;2022-08-14T00:54:27;21.60;99.90
27423;DHT22;14878;50.778;0.258;2022-08-14T00:55:28;21.60;99.90
27423;DHT22;14878;50.778;0.258;2022-08-14T00:56:29;21.60;99.90
27423;DHT22;14878;50.778;0.258;2022-08-14T00:57:32;21.60;99.90
27423;DHT22;14878;50.778;0.258;2022-08-14T00:58:34;21.50;99.90
27423;DHT22;14878;50.778;0.258;2022-08-14T00:59:35;21.40;99.90
27423;DHT22;14878;50.778;0.258;2022-08-14T01:00:37;21.50;99.90
27423;DHT22;14878;50.778;0.258;2022-08-14T01:01:38;21.50;99.90
27423;DHT22;14878;50.778;0.258;2022-08-14T01:02:42;21.40;99.90
27423;DHT22;14878;50.778;0.258;2022-08-14T01:03:44;21.40;99.90
27423;DHT22;14878;50.778;0.258;2022-08-14T01:04:46;21.40;99.90
27423;DHT22;14878;50.778;0.258;2022-08-14T01:05:49;21.40;99.90
27423;DHT22;14878;50.778;0.258;2022-08-14T01:06:50;21.40;99.90
27423;DHT22;14878;50.778;0.258;2022-08-14T01:07:53;21.40;99.90
27423;DHT22;14878;50.778;0.258;2022-08-14T01:09:01;21.40;99.90
27423;DHT22;14878;50.778;0.258;2022-08-14T01:10:03;21.50;99.90
27423;DHT22;14878;50.778;0.258;2022-08-14T01:11:05;21.50;99.90
27423;DHT22;14878;50.778;0.258;2022-08-14T01:12:06;21.40;99.90
27423;DHT22;14878;50.778;0.258;2022-08-14T01:13:07;21.40;99.90
27423;DHT22;14878;50.778;0.258;2022-08-14T01:14:08;21.30;99.90
27423;DHT22;14878;50.778;0.258;2022-08-14T01:15:13;21.20;99.90
27423;DHT22;14878;50.778;0.258;2022-08-14T01:16:15;21.30;99.90
27423;DHT22;14878;50.778;0.258;2022-08-14T01:17:16;21.30;99.90
27423;DHT22;14878;50.778;0.258;2022-08-14T01:18:18;21.30;99.90
27423;DHT22;14878;50.778;0.258;2022-08-14T01:19:38;21.20;99.90
27423;DHT22;14878;50.778;0.258;2022-08-14T01:20:58;21.20;99.90
27423;DHT22;14878;50.778;0.258;2022-08-14T01:22:06;21.20;99.90
27423;DHT22;14878;50.778;0.258;2022-08-14T01:23:12;21.10;99.90
27423;DHT22;14878;50.778;0.258;2022-08-14T01:24:13;21.10;99.90
27423;DHT22;14878;50.778;0.258;2022-08-14T01:25:15;21.10;99.90
27423;DHT22;14878;50.778;0.258;2022-08-14T01:26:18;21.10;99.90
27423;DHT22;14878;50.778;0.258;2022-08-14T01:27:23;21.10;99.90
27423;DHT22;14878;50.778;0.258;2022-08-14T01:28:25;21.10;99.90
27423;DHT22;14878;50.778;0.258;2022-08-14T01:29:28;21.20;99.90
27423;DHT22;14878;50.778;0.258;2022-08-14T01:30:30;21.20;99.90
27423;DHT22;14878;50.778;0.258;2022-08-14T01:31:34;21.20;99.90
27423;DHT22;14878;50.778;0.258;2022-08-14T01:32:52;21.20;99.90
27423;DHT22;14878;50.778;0.258;2022-08-14T01:33:56;21.00;99.90
27423;DHT22;14878;50.778;0.258;2022-08-14T01:34:57;21.00;99.90
27423;DHT22;14878;50.778;0.258;2022-08-14T01:35:59;21.10;99.90
27423;DHT22;14878;50.778;0.258;2022-08-14T01:37:00;21.10;99.90
27423;DHT22;14878;50.778;0.258;2022-08-14T01:38:02;21.10;99.90
27423;DHT22;14878;50.778;0.258;2022-08-14T01:39:09;21.10;99.90
27423;DHT22;14878;50.778;0.258;2022-08-14T01:40:10;21.10;99.90
27423;DHT22;14878;50.778;0.258;2022-08-14T01:41:19;21.20;99.90
27423;DHT22;14878;50.778;0.258;2022-08-14T01:42:20;21.20;99.90
27423;DHT22;14878;50.778;0.258;2022-08-14T01:43:21;21.20;99.90
27423;DHT22;14878;50.778;0.258;2022-08-14T01:44:23;21.20;99.90
27423;DHT22;14878;50.778;0.258;2022-08-14T01:45:26;21.20;99.90
27423;DHT22;14878;50.778;0.258;2022-08-14T01:46:31;21.10;99.90
27423;DHT22;14878;50.778;0.258;2022-08-14T01:47:33;21.20;99.90
27423;DHT22;14878;50.778;0.258;2022-08-14T01:48:34;21.10;99.90
27423;DHT22;14878;50.778;0.258;2022-08-14T01:49:34;21.20;99.90
27423;DHT22;14878;50.778;0.258;2022-08-14T01:50:36;21.20;99.90
27423;DHT22;14878;50.778;0.258;2022-08-14T01:51:38;21.20;99.90
27423;DHT22;14878;50.778;0.258;2022-08-14T01:52:39;21.00;99.90
27423;DHT22;14878;50.778;0.258;2022-08-14T01:53:43;20.90;99.90
27423;DHT22;14878;50.778;0.258;2022-08-14T01:54:44;20.80;99.90
27423;DHT22;14878;50.778;0.258;2022-08-14T01:55:45;20.80;99.90
27423;DHT22;14878;50.778;0.258;2022-08-14T01:56:54;20.80;99.90
27423;DHT22;14878;50.778;0.258;2022-08-14T01:57:57;20.70;99.90
27423;DHT22;14878;50.778;0.258;2022-08-14T01:58:58;20.70;99.90
27423;DHT22;14878;50.778;0.258;2022-08-14T01:59:59;20.70;99.90
27423;DHT22;14878;50.778;0.258;2022-08-14T02:01:00;20.70;99.90
27423;DHT22;14878;50.778;0.258;2022-08-14T02:02:05;20.80;99.90
27423;DHT22;14878;50.778;0.258;2022-08-14T02:03:12;20.80;99.90
27423;DHT22;14878;50.778;0.258;2022-08-14T02:04:12;20.70;99.90
27423;DHT22;14878;50.778;0.258;2022-08-14T02:05:15;20.80;99.90
27423;DHT22;14878;50.778;0.258;2022-08-14T02:06:16;20.80;99.90
27423;DHT22;14878;50.778;0.258;2022-08-14T02:07:17;20.80;99.90
27423;DHT22;14878;50.778;0.258;2022-08-14T02:08:19;20.80;99.90
27423;DHT22;14878;50.778;0.258;2022-08-14T02:09:20;20.80;99.90
27423;DHT22;14878;50.778;0.258;2022-08-14T02:10:21;20.80;99.90
27423;DHT22;14878;50.778;0.258;2022-08-14T02:11:24;20.70;99.90
27423;DHT22;14878;50.778;0.258;2022-08-14T02:12:25;20.60;99.90
27423;DHT22;14878;50.778;0.258;2022-08-14T02:13:26;20.60;99.90
27423;DHT22;14878;50.778;0.258;2022-08-14T02:14:27;20.60;99.90
27423;DHT22;14878;50.778;0.258;2022-08-14T02:15:28;21.80;99.90
27423;DHT22;14878;50.778;0.258;2022-08-14T02:16:33;20.70;99.90
27423;DHT22;14878;50.778;0.258;2022-08-14T02:17:38;20.80;99.90
27423;DHT22;14878;50.778;0.258;2022-08-14T02:18:39;20.90;99.90
27423;DHT22;14878;50.778;0.258;2022-08-14T02:19:40;21.00;99.90
27423;DHT22;14878;50.778;0.258;2022-08-14T02:20:41;20.90;99.90
27423;DHT22;14878;50.778;0.258;2022-08-14T02:21:45;20.90;99.90
27423;DHT22;14878;50.778;0.258;2022-08-14T02:22:46;20.80;99.90
27423;DHT22;14878;50.778;0.258;2022-08-14T02:23:48;20.80;99.90
27423;DHT22;14878;50.778;0.258;2022-08-14T02:24:50;20.80;99.90
27423;DHT22;14878;50.778;0.258;2022-08-14T02:25:50;20.80;99.90
27423;DHT22;14878;50.778;0.258;2022-08-14T02:26:51;20.70;99.90
27423;DHT22;14878;50.778;0.258;2022-08-14T02:27:52;20.60;99.90
27423;DHT22;14878;50.778;0.258;2022-08-14T02:29:03;20.70;99.90
27423;DHT22;14878;50.778;0.258;2022-08-14T02:30:05;20.70;99.90
27423;DHT22;14878;50.778;0.258;2022-08-14T02:31:08;20.70;99.90
27423;DHT22;14878;50.778;0.258;2022-08-14T02:32:09;20.70;99.90
27423;DHT22;14878;50.778;0.258;2022-08-14T02:33:10;20.60;99.90
27423;DHT22;14878;50.778;0.258;2022-08-14T02:34:23;20.50;99.90
27423;DHT22;14878;50.778;0.258;2022-08-14T02:35:28;20.50;99.90
27423;DHT22;14878;50.778;0.258;2022-08-14T02:36:29;20.40;99.90
27423;DHT22;14878;50.778;0.258;2022-08-14T02:37:30;20.30;99.90
27423;DHT22;14878;50.778;0.258;2022-08-14T02:38:31;20.30;99.90
27423;DHT22;14878;50.778;0.258;2022-08-14T02:39:43;20.40;99.90
27423;DHT22;14878;50.778;0.258;2022-08-14T02:40:44;20.40;99.90
27423;DHT22;14878;50.778;0.258;2022-08-14T02:41:45;20.30;99.90
27423;DHT22;14878;50.778;0.258;2022-08-14T02:42:50;20.30;99.90
27423;DHT22;14878;50.778;0.258;2022-08-14T02:43:51;20.20;99.90
27423;DHT22;14878;50.778;0.258;2022-08-14T02:44:52;20.20;99.90
27423;DHT22;14878;50.778;0.258;2022-08-14T02:45:53;20.20;99.90
27423;DHT22;14878;50.778;0.258;2022-08-14T02:46:54;20.20;99.90
27423;DHT22;14878;50.778;0.258;2022-08-14T02:47:57;20.20;99.90
27423;DHT22;14878;50.778;0.258;2022-08-14T02:48:58;20.10;99.90
27423;DHT22;14878;50.778;0.258;2022-08-14T02:49:59;20.10;99.90
27423;DHT22;14878;50.778;0.258;2022-08-14T02:51:02;20.00;99.90
27423;DHT22;14878;50.778;0.258;2022-08-14T02:52:05;20.00;99.90
27423;DHT22;14878;50.778;0.258;2022-08-14T02:53:09;20.00;99.90
27423;DHT22;14878;50.778;0.258;2022-08-14T02:54:11;20.10;99.90
27423;DHT22;14878;50.778;0.258;2022-08-14T02:55:12;20.10;99.90
27423;DHT22;14878;50.778;0.258;2022-08-14T02:56:15;20.00;99.90
27423;DHT22;14878;50.778;0.258;2022-08-14T02:57:16;20.10;99.90
27423;DHT22;14878;50.778;0.258;2022-08-14T02:58:19;20.10;99.90
27423;DHT22;14878;50.778;0.258;2022-08-14T02:59:24;20.10;99.90
27423;DHT22;14878;50.778;0.258;2022-08-14T03:00:28;20.20;99.90
27423;DHT22;14878;50.778;0.258;2022-08-14T03:01:29;20.20;99.90
27423;DHT22;14878;50.778;0.258;2022-08-14T03:02:30;20.10;99.90
27423;DHT22;14878;50.778;0.258;2022-08-14T03:03:34;20.00;99.90
27423;DHT22;14878;50.778;0.258;2022-08-14T03:04:36;20.10;99.90
27423;DHT22;14878;50.778;0.258;2022-08-14T03:05:37;20.00;99.90
27423;DHT22;14878;50.778;0.258;2022-08-14T03:06:39;20.00;99.90
27423;DHT22;14878;50.778;0.258;2022-08-14T03:07:43;20.00;99.90
27423;DHT22;14878;50.778;0.258;2022-08-14T03:08:44;20.00;99.90
27423;DHT22;14878;50.778;0.258;2022-08-14T03:09:44;22.20;99.90
27423;DHT22;14878;50.778;0.258;2022-08-14T03:10:46;20.10;99.90
27423;DHT22;14878;50.778;0.258;2022-08-14T03:11:47;20.00;99.90
27423;DHT22;14878;50.778;0.258;2022-08-14T03:12:48;19.90;99.90
27423;DHT22;14878;50.778;0.258;2022-08-14T03:13:50;19.80;99.90
27423;DHT22;14878;50.778;0.258;2022-08-14T03:14:53;19.80;99.90
27423;DHT22;14878;50.778;0.258;2022-08-14T03:15:54;19.80;99.90
27423;DHT22;14878;50.778;0.258;2022-08-14T03:16:55;19.90;99.90
27423;DHT22;14878;50.778;0.258;2022-08-14T03:17:56;19.90;99.90
27423;DHT22;14878;50.778;0.258;2022-08-14T03:18:57;19.90;99.90
27423;DHT22;14878;50.778;0.258;2022-08-14T03:20:00;19.90;99.90
27423;DHT22;14878;50.778;0.258;2022-08-14T03:21:03;19.80;99.90
27423;DHT22;14878;50.778;0.258;2022-08-14T03:22:04;19.80;99.90
27423;DHT22;14878;50.778;0.258;2022-08-14T03:23:05;19.80;99.90
27423;DHT22;14878;50.778;0.258;2022-08-14T03:24:06;19.80;99.90
27423;DHT22;14878;50.778;0.258;2022-08-14T03:25:10;19.90;99.90
27423;DHT22;14878;50.778;0.258;2022-08-14T03:26:17;19.90;99.90
27423;DHT22;14878;50.778;0.258;2022-08-14T03:27:19;19.70;99.90
27423;DHT22;14878;50.778;0.258;2022-08-14T03:28:19;19.80;99.90
27423;DHT22;14878;50.778;0.258;2022-08-14T03:29:22;19.80;99.90
27423;DHT22;14878;50.778;0.258;2022-08-14T03:30:24;19.90;99.90
27423;DHT22;14878;50.778;0.258;2022-08-14T03:31:25;19.90;99.90
27423;DHT22;14878;50.778;0.258;2022-08-14T03:32:25;20.00;99.90
27423;DHT22;14878;50.778;0.258;2022-08-14T03:33:27;19.90;99.90
27423;DHT22;14878;50.778;0.258;2022-08-14T03:34:28;19.80;99.90
27423;DHT22;14878;50.778;0.258;2022-08-14T03:35:29;19.80;99.90
27423;DHT22;14878;50.778;0.258;2022-08-14T03:36:30;19.90;99.90
27423;DHT22;14878;50.778;0.258;2022-08-14T03:37:31;19.90;99.90
27423;DHT22;14878;50.778;0.258;2022-08-14T03:38:33;19.90;99.90
27423;DHT22;14878;50.778;0.258;2022-08-14T03:39:34;19.80;99.90
27423;DHT22;14878;50.778;0.258;2022-08-14T03:40:35;19.60;99.90
27423;DHT22;14878;50.778;0.258;2022-08-14T03:41:40;19.60;99.90
27423;DHT22;14878;50.778;0.258;2022-08-14T03:42:40;19.50;99.90
27423;DHT22;14878;50.778;0.258;2022-08-14T03:43:42;19.60;99.90
27423;DHT22;14878;50.778;0.258;2022-08-14T03:44:43;19.60;99.90
27423;DHT22;14878;50.778;0.258;2022-08-14T03:45:44;19.60;99.90
27423;DHT22;14878;50.778;0.258;2022-08-14T03:46:45;19.50;99.90
27423;DHT22;14878;50.778;0.258;2022-08-14T03:47:48;19.60;99.90
27423;DHT22;14878;50.778;0.258;2022-08-14T03:48:49;19.60;99.90
27423;DHT22;14878;50.778;0.258;2022-08-14T03:49:50;19.60;99.90
27423;DHT22;14878;50.778;0.258;2022-08-14T03:50:51;19.60;99.90
27423;DHT22;14878;50.778;0.258;2022-08-14T03:51:52;19.70;99.90
27423;DHT22;14878;50.778;0.258;2022-08-14T03:52:53;19.70;99.90
27423;DHT22;14878;50.778;0.258;2022-08-14T03:53:55;19.70;99.90
27423;DHT22;14878;50.778;0.258;2022-08-14T03:54:59;19.60;99.90
27423;DHT22;14878;50.778;0.258;2022-08-14T03:56:01;19.60;99.90
27423;DHT22;14878;50.778;0.258;2022-08-14T03:57:02;19.70;99.90
27423;DHT22;14878;50.778;0.258;2022-08-14T03:58:07;19.70;99.90
27423;DHT22;14878;50.778;0.258;2022-08-14T03:59:08;19.60;99.90
27423;DHT22;14878;50.778;0.258;2022-08-14T04:00:11;19.50;99.90
27423;DHT22;14878;50.778;0.258;2022-08-14T04:01:14;19.60;99.90
27423;DHT22;14878;50.778;0.258;2022-08-14T04:02:15;19.50;99.90
27423;DHT22;14878;50.778;0.258;2022-08-14T04:03:16;19.50;99.90
27423;DHT22;14878;50.778;0.258;2022-08-14T04:04:17;19.40;99.90
27423;DHT22;14878;50.778;0.258;2022-08-14T04:05:17;19.30;99.90
27423;DHT22;14878;50.778;0.258;2022-08-14T04:06:18;19.40;99.90
27423;DHT22;14878;50.778;0.258;2022-08-14T04:07:22;19.30;99.90
27423;DHT22;14878;50.778;0.258;2022-08-14T04:08:23;19.30;99.90
27423;DHT22;14878;50.778;0.258;2022-08-14T04:09:24;19.30;99.90
27423;DHT22;14878;50.778;0.258;2022-08-14T04:10:25;19.30;99.90
27423;DHT22;14878;50.778;0.258;2022-08-14T04:11:26;19.40;99.90
27423;DHT22;14878;50.778;0.258;2022-08-14T04:12:26;19.50;99.90
27423;DHT22;14878;50.778;0.258;2022-08-14T04:13:29;19.50;99.90
27423;DHT22;14878;50.778;0.258;2022-08-14T04:14:30;19.60;99.90
27423;DHT22;14878;50.778;0.258;2022-08-14T04:15:32;19.50;99.90
27423;DHT22;14878;50.778;0.258;2022-08-14T04:16:33;19.40;99.90
27423;DHT22;14878;50.778;0.258;2022-08-14T04:17:35;19.30;99.90
27423;DHT22;14878;50.778;0.258;2022-08-14T04:18:40;19.30;99.90
27423;DHT22;14878;50.778;0.258;2022-08-14T04:19:42;19.40;99.90
27423;DHT22;14878;50.778;0.258;2022-08-14T04:20:43;19.40;99.90
27423;DHT22;14878;50.778;0.258;2022-08-14T04:21:45;19.50;99.90
27423;DHT22;14878;50.778;0.258;2022-08-14T04:22:46;19.50;99.90
27423;DHT22;14878;50.778;0.258;2022-08-14T04:23:47;19.40;99.90
27423;DHT22;14878;50.778;0.258;2022-08-14T04:24:47;19.40;99.90
27423;DHT22;14878;50.778;0.258;2022-08-14T04:25:48;19.40;99.90
27423;DHT22;14878;50.778;0.258;2022-08-14T04:26:52;19.40;99.90
27423;DHT22;14878;50.778;0.258;2022-08-14T04:27:53;19.40;99.90
27423;DHT22;14878;50.778;0.258;2022-08-14T04:28:55;19.50;99.90
27423;DHT22;14878;50.778;0.258;2022-08-14T04:29:56;19.50;99.90
27423;DHT22;14878;50.778;0.258;2022-08-14T04:30:57;19.40;99.90
27423;DHT22;14878;50.778;0.258;2022-08-14T04:31:58;19.30;99.90
27423;DHT22;14878;50.778;0.258;2022-08-14T04:32:59;19.30;99.90
27423;DHT22;14878;50.778;0.258;2022-08-14T04:34:00;19.30;99.90
27423;DHT22;14878;50.778;0.258;2022-08-14T04:35:03;19.40;99.90
27423;DHT22;14878;50.778;0.258;2022-08-14T04:36:04;19.40;99.90
27423;DHT22;14878;50.778;0.258;2022-08-14T04:37:06;19.40;99.90
27423;DHT22;14878;50.778;0.258;2022-08-14T04:38:25;19.30;99.90
27423;DHT22;14878;50.778;0.258;2022-08-14T04:39:45;19.20;99.90
27423;DHT22;14878;50.778;0.258;2022-08-14T04:41:04;19.30;99.90
27423;DHT22;14878;50.778;0.258;2022-08-14T04:42:24;19.30;99.90
27423;DHT22;14878;50.778;0.258;2022-08-14T04:43:44;19.20;99.90
27423;DHT22;14878;50.778;0.258;2022-08-14T04:44:45;19.20;99.90
27423;DHT22;14878;50.778;0.258;2022-08-14T04:45:46;19.20;99.90
27423;DHT22;14878;50.778;0.258;2022-08-14T04:46:47;19.20;99.90
27423;DHT22;14878;50.778;0.258;2022-08-14T04:48:15;19.20;99.90
27423;DHT22;14878;50.778;0.258;2022-08-14T04:49:16;19.20;99.90
27423;DHT22;14878;50.778;0.258;2022-08-14T04:50:17;19.20;99.90
27423;DHT22;14878;50.778;0.258;2022-08-14T04:51:19;19.30;99.90
27423;DHT22;14878;50.778;0.258;2022-08-14T04:52:20;19.30;99.90
27423;DHT22;14878;50.778;0.258;2022-08-14T04:53:23;19.20;99.90
27423;DHT22;14878;50.778;0.258;2022-08-14T04:54:25;19.10;99.90
27423;DHT22;14878;50.778;0.258;2022-08-14T04:55:26;19.20;99.90
27423;DHT22;14878;50.778;0.258;2022-08-14T04:56:27;19.30;99.90
27423;DHT22;14878;50.778;0.258;2022-08-14T04:57:28;19.30;99.90
27423;DHT22;14878;50.778;0.258;2022-08-14T04:58:31;19.30;99.90
27423;DHT22;14878;50.778;0.258;2022-08-14T04:59:32;19.40;99.90
27423;DHT22;14878;50.778;0.258;2022-08-14T05:00:35;19.50;99.90
27423;DHT22;14878;50.778;0.258;2022-08-14T05:01:38;19.60;99.90
27423;DHT22;14878;50.778;0.258;2022-08-14T05:02:41;19.60;99.90
27423;DHT22;14878;50.778;0.258;2022-08-14T05:03:44;19.50;99.90
27423;DHT22;14878;50.778;0.258;2022-08-14T05:04:45;19.50;99.90
27423;DHT22;14878;50.778;0.258;2022-08-14T05:05:50;19.30;99.90
27423;DHT22;14878;50.778;0.258;2022-08-14T05:06:52;19.30;99.90
27423;DHT22;14878;50.778;0.258;2022-08-14T05:07:53;19.30;99.90
27423;DHT22;14878;50.778;0.258;2022-08-14T05:08:54;19.30;99.90
27423;DHT22;14878;50.778;0.258;2022-08-14T05:09:55;19.30;99.90
27423;DHT22;14878;50.778;0.258;2022-08-14T05:10:58;19.20;99.90
27423;DHT22;14878;50.778;0.258;2022-08-14T05:11:59;19.10;99.90
27423;DHT22;14878;50.778;0.258;2022-08-14T05:13:00;19.20;99.90
27423;DHT22;14878;50.778;0.258;2022-08-14T05:14:03;19.30;99.90
27423;DHT22;14878;50.778;0.258;2022-08-14T05:15:04;19.30;99.90
27423;DHT22;14878;50.778;0.258;2022-08-14T05:16:07;19.30;99.90
27423;DHT22;14878;50.778;0.258;2022-08-14T05:17:10;19.40;99.90
27423;DHT22;14878;50.778;0.258;2022-08-14T05:18:15;19.40;99.90
27423;DHT22;14878;50.778;0.258;2022-08-14T05:19:16;19.50;99.90
27423;DHT22;14878;50.778;0.258;2022-08-14T05:20:17;19.40;99.90
27423;DHT22;14878;50.778;0.258;2022-08-14T05:21:18;19.30;99.90
27423;DHT22;14878;50.778;0.258;2022-08-14T05:22:19;19.30;99.90
27423;DHT22;14878;50.778;0.258;2022-08-14T05:23:23;19.30;99.90
27423;DHT22;14878;50.778;0.258;2022-08-14T05:24:25;19.30;99.90
27423;DHT22;14878;50.778;0.258;2022-08-14T05:25:25;19.30;99.90
27423;DHT22;14878;50.778;0.258;2022-08-14T05:26:26;19.40;99.90
27423;DHT22;14878;50.778;0.258;2022-08-14T05:27:28;19.40;99.90
27423;DHT22;14878;50.778;0.258;2022-08-14T05:28:31;19.40;99.90
27423;DHT22;14878;50.778;0.258;2022-08-14T05:29:36;19.40;99.90
27423;DHT22;14878;50.778;0.258;2022-08-14T05:30:37;19.40;99.90
27423;DHT22;14878;50.778;0.258;2022-08-14T05:31:39;19.40;99.90
27423;DHT22;14878;50.778;0.258;2022-08-14T05:32:39;19.40;99.90
27423;DHT22;14878;50.778;0.258;2022-08-14T05:33:43;19.50;99.90
27423;DHT22;14878;50.778;0.258;2022-08-14T05:34:44;19.60;99.90
27423;DHT22;14878;50.778;0.258;2022-08-14T05:35:47;19.70;99.90
27423;DHT22;14878;50.778;0.258;2022-08-14T05:36:48;19.70;99.90
27423;DHT22;14878;50.778;0.258;2022-08-14T05:37:49;19.80;99.90
27423;DHT22;14878;50.778;0.258;2022-08-14T05:38:49;19.90;99.90
27423;DHT22;14878;50.778;0.258;2022-08-14T05:39:51;19.90;99.90
27423;DHT22;14878;50.778;0.258;2022-08-14T05:40:51;20.00;99.90
27423;DHT22;14878;50.778;0.258;2022-08-14T05:41:52;20.10;99.90
27423;DHT22;14878;50.778;0.258;2022-08-14T05:42:54;20.20;99.90
27423;DHT22;14878;50.778;0.258;2022-08-14T05:43:55;20.20;99.90
27423;DHT22;14878;50.778;0.258;2022-08-14T05:44:55;20.20;99.90
27423;DHT22;14878;50.778;0.258;2022-08-14T05:45:58;20.20;99.90
27423;DHT22;14878;50.778;0.258;2022-08-14T05:46:59;20.20;99.90
27423;DHT22;14878;50.778;0.258;2022-08-14T05:48:04;20.30;99.90
27423;DHT22;14878;50.778;0.258;2022-08-14T05:49:05;20.40;99.90
27423;DHT22;14878;50.778;0.258;2022-08-14T05:50:12;20.30;99.90
27423;DHT22;14878;50.778;0.258;2022-08-14T05:51:13;20.40;99.90
27423;DHT22;14878;50.778;0.258;2022-08-14T05:52:14;20.50;99.90
27423;DHT22;14878;50.778;0.258;2022-08-14T05:53:15;20.60;99.90
27423;DHT22;14878;50.778;0.258;2022-08-14T05:54:18;20.60;99.90
27423;DHT22;14878;50.778;0.258;2022-08-14T05:55:20;20.70;99.90
27423;DHT22;14878;50.778;0.258;2022-08-14T05:56:23;20.70;99.90
27423;DHT22;14878;50.778;0.258;2022-08-14T05:57:24;20.70;99.90
27423;DHT22;14878;50.778;0.258;2022-08-14T05:58:25;22.30;99.90
27423;DHT22;14878;50.778;0.258;2022-08-14T05:59:26;20.90;99.90
27423;DHT22;14878;50.778;0.258;2022-08-14T06:00:36;21.20;99.90
27423;DHT22;14878;50.778;0.258;2022-08-14T06:01:37;21.50;99.90
27423;DHT22;14878;50.778;0.258;2022-08-14T06:02:38;21.80;99.90
27423;DHT22;14878;50.778;0.258;2022-08-14T06:03:39;21.90;99.90
27423;DHT22;14878;50.778;0.258;2022-08-14T06:04:40;21.90;99.90
27423;DHT22;14878;50.778;0.258;2022-08-14T06:05:50;21.70;99.90
27423;DHT22;14878;50.778;0.258;2022-08-14T06:06:51;21.80;99.90
27423;DHT22;14878;50.778;0.258;2022-08-14T06:07:52;21.80;99.90
27423;DHT22;14878;50.778;0.258;2022-08-14T06:08:53;20.60;99.90
27423;DHT22;14878;50.778;0.258;2022-08-14T06:09:54;21.90;99.90
27423;DHT22;14878;50.778;0.258;2022-08-14T06:10:57;21.90;99.90
27423;DHT22;14878;50.778;0.258;2022-08-14T06:12:05;21.90;99.90
27423;DHT22;14878;50.778;0.258;2022-08-14T06:13:06;22.20;99.90
27423;DHT22;14878;50.778;0.258;2022-08-14T06:14:07;22.20;99.90
27423;DHT22;14878;50.778;0.258;2022-08-14T06:15:10;22.20;99.90
27423;DHT22;14878;50.778;0.258;2022-08-14T06:16:13;22.30;99.90
27423;DHT22;14878;50.778;0.258;2022-08-14T06:17:13;22.30;99.90
27423;DHT22;14878;50.778;0.258;2022-08-14T06:18:16;22.40;99.90
27423;DHT22;14878;50.778;0.258;2022-08-14T06:19:16;22.50;99.90
27423;DHT22;14878;50.778;0.258;2022-08-14T06:20:18;22.70;99.90
27423;DHT22;14878;50.778;0.258;2022-08-14T06:21:22;22.80;99.90
27423;DHT22;14878;50.778;0.258;2022-08-14T06:22:23;22.80;99.90
27423;DHT22;14878;50.778;0.258;2022-08-14T06:23:24;23.00;99.90
27423;DHT22;14878;50.778;0.258;2022-08-14T06:24:26;23.40;99.90
27423;DHT22;14878;50.778;0.258;2022-08-14T06:25:27;23.60;99.90
27423;DHT22;14878;50.778;0.258;2022-08-14T06:26:28;23.50;99.90
27423;DHT22;14878;50.778;0.258;2022-08-14T06:27:43;23.50;99.90
27423;DHT22;14878;50.778;0.258;2022-08-14T06:28:45;23.90;99.90
27423;DHT22;14878;50.778;0.258;2022-08-14T06:29:48;24.10;99.90
27423;DHT22;14878;50.778;0.258;2022-08-14T06:30:49;23.90;99.90
27423;DHT22;14878;50.778;0.258;2022-08-14T06:31:51;23.80;99.90
27423;DHT22;14878;50.778;0.258;2022-08-14T06:32:52;24.00;99.90
27423;DHT22;14878;50.778;0.258;2022-08-14T06:33:53;24.30;99.90
27423;DHT22;14878;50.778;0.258;2022-08-14T06:34:54;26.10;99.90